createdAt,value
2019-01-12T00:00:58.340Z,6.40
2019-01-12T00:03:27.585Z,6.40
2019-01-12T00:05:56.735Z,6.40
2019-01-12T00:08:26.029Z,6.30
2019-01-12T00:10:55.607Z,6.40
2019-01-12T00:13:24.851Z,6.30
2019-01-12T00:15:55.237Z,6.30
2019-01-12T00:18:24.418Z,6.30
2019-01-12T00:20:54.046Z,6.30
2019-01-12T00:23:23.173Z,6.30
2019-01-12T00:25:52.487Z,6.30
2019-01-12T00:28:21.681Z,6.30
2019-01-12T00:30:50.945Z,6.30
2019-01-12T00:33:20.102Z,6.40
2019-01-12T00:35:49.301Z,6.30
2019-01-12T00:38:18.707Z,6.30
2019-01-12T00:40:47.890Z,6.30
2019-01-12T00:43:17.169Z,6.30
2019-01-12T00:45:46.333Z,6.30
2019-01-12T00:48:15.484Z,6.30
2019-01-12T00:50:44.798Z,6.30
2019-01-12T00:53:13.924Z,6.30
2019-01-12T00:55:43.103Z,6.30
2019-01-12T00:58:12.615Z,6.30
2019-01-12T01:00:42.917Z,6.30
2019-01-12T01:03:12.183Z,6.30
2019-01-12T01:05:41.399Z,6.30
2019-01-12T01:08:10.779Z,6.30
2019-01-12T01:10:40.072Z,6.30
2019-01-12T01:13:09.280Z,6.30
2019-01-12T01:15:38.687Z,6.30
2019-01-12T01:18:08.035Z,6.30
2019-01-12T01:20:37.453Z,6.30
2019-01-12T01:23:06.649Z,6.30
2019-01-12T01:25:35.818Z,6.30
2019-01-12T01:28:05.296Z,6.30
2019-01-12T01:30:34.625Z,6.30
2019-01-12T01:33:03.810Z,6.30
2019-01-12T01:35:38.627Z,6.30
2019-01-12T01:38:07.877Z,6.30
2019-01-12T01:40:37.416Z,6.30
2019-01-12T01:43:07.906Z,6.30
2019-01-12T01:45:39.189Z,6.30
2019-01-12T01:48:11.229Z,6.30
2019-01-12T01:50:40.564Z,6.30
2019-01-12T01:53:09.786Z,6.30
2019-01-12T01:55:38.926Z,6.20
2019-01-12T01:58:08.561Z,6.20
2019-01-12T02:00:38.967Z,6.30
2019-01-12T02:03:14.026Z,6.20
2019-01-12T02:05:43.224Z,6.20
2019-01-12T02:08:14.381Z,6.20
2019-01-12T02:10:43.302Z,6.20
2019-01-12T02:13:12.583Z,6.20
2019-01-12T02:15:41.746Z,6.20
2019-01-12T02:18:10.925Z,6.20
2019-01-12T02:20:40.186Z,6.20
2019-01-12T02:23:09.422Z,6.10
2019-01-12T02:25:38.762Z,6.10
2019-01-12T02:28:07.938Z,6.10
2019-01-12T02:30:37.111Z,6.10
2019-01-12T02:33:06.378Z,6.10
2019-01-12T02:35:35.868Z,6.20
2019-01-12T02:38:05.040Z,6.20
2019-01-12T02:40:39.373Z,6.20
2019-01-12T02:43:08.658Z,6.20
2019-01-12T02:45:37.759Z,6.20
2019-01-12T02:48:07.148Z,6.20
2019-01-12T02:50:36.328Z,6.20
2019-01-12T02:53:05.577Z,6.20
2019-01-12T02:55:34.846Z,6.20
2019-01-12T02:58:04.111Z,6.20
2019-01-12T03:00:33.245Z,6.30
2019-01-12T03:03:05.107Z,6.20
2019-01-12T03:05:34.402Z,6.30
2019-01-12T03:08:03.632Z,6.30
2019-01-12T03:10:32.772Z,6.30
2019-01-12T03:13:02.022Z,6.30
2019-01-12T03:15:31.261Z,6.20
2019-01-12T03:18:00.455Z,6.30
2019-01-12T03:20:29.723Z,6.20
2019-01-12T03:22:58.977Z,6.20
2019-01-12T03:25:28.156Z,6.20
2019-01-12T03:27:57.347Z,6.20
2019-01-12T03:30:26.613Z,6.20
2019-01-12T03:32:55.976Z,6.20
2019-01-12T03:35:25.165Z,6.20
2019-01-12T03:37:54.899Z,6.20
2019-01-12T03:40:24.101Z,6.20
2019-01-12T03:42:53.386Z,6.10
2019-01-12T03:45:22.644Z,6.10
2019-01-12T03:47:51.836Z,6.10
2019-01-12T03:50:21.007Z,6.10
2019-01-12T03:52:50.171Z,6.10
2019-01-12T03:55:25.624Z,6.20
2019-01-12T03:57:52.233Z,6.20
2019-01-12T04:00:23.529Z,6.20
2019-01-12T04:02:52.793Z,6.10
2019-01-12T04:05:22.271Z,6.20
2019-01-12T04:07:51.481Z,6.20
2019-01-12T04:10:21.720Z,6.10
2019-01-12T04:12:50.905Z,6.20
2019-01-12T04:15:20.121Z,6.10
2019-01-12T04:17:49.263Z,6.10
2019-01-12T04:20:18.462Z,6.10
2019-01-12T04:22:47.597Z,6.10
2019-01-12T04:25:16.910Z,6.10
2019-01-12T04:27:46.042Z,6.10
2019-01-12T04:30:18.947Z,6.10
2019-01-12T04:32:48.375Z,6.10
2019-01-12T04:35:17.849Z,6.00
2019-01-12T04:37:47.077Z,6.10
2019-01-12T04:40:20.892Z,6.10
2019-01-12T04:42:50.122Z,6.10
2019-01-12T04:45:19.380Z,6.10
2019-01-12T04:47:48.631Z,6.10
2019-01-12T04:50:18.256Z,6.00
2019-01-12T04:52:47.489Z,6.10
2019-01-12T04:55:16.821Z,6.00
2019-01-12T04:57:45.959Z,6.00
2019-01-12T05:00:19.301Z,6.00
2019-01-12T05:02:48.653Z,6.00
2019-01-12T05:05:17.905Z,6.00
2019-01-12T05:07:47.139Z,6.00
2019-01-12T05:10:16.326Z,6.00
2019-01-12T05:12:45.608Z,6.00
2019-01-12T05:15:15.752Z,6.00
2019-01-12T05:17:45.023Z,6.00
2019-01-12T05:20:19.137Z,6.00
2019-01-12T05:22:48.542Z,6.00
2019-01-12T05:25:18.039Z,6.00
2019-01-12T05:27:47.299Z,6.00
2019-01-12T05:30:18.770Z,6.10
2019-01-12T05:32:48.019Z,6.00
2019-01-12T05:35:17.141Z,6.00
2019-01-12T05:37:46.381Z,6.10
2019-01-12T05:40:15.668Z,6.10
2019-01-12T05:42:44.834Z,6.00
2019-01-12T05:45:14.324Z,6.00
2019-01-12T05:47:43.467Z,6.00
2019-01-12T05:50:13.509Z,6.00
2019-01-12T05:52:42.665Z,6.00
2019-01-12T05:55:11.937Z,6.00
2019-01-12T05:57:41.121Z,6.00
2019-01-12T06:00:19.355Z,6.00
2019-01-12T06:02:48.663Z,5.90
2019-01-12T06:05:17.862Z,5.90
2019-01-12T06:07:47.041Z,5.90
2019-01-12T06:10:16.224Z,5.90
2019-01-12T06:12:45.408Z,6.00
2019-01-12T06:15:15.346Z,6.00
2019-01-12T06:17:44.511Z,6.00
2019-01-12T06:20:14.990Z,5.90
2019-01-12T06:22:44.109Z,5.90
2019-01-12T06:25:13.552Z,6.00
2019-01-12T06:27:43.039Z,6.00
2019-01-12T06:30:17.676Z,5.90
2019-01-12T06:32:47.212Z,5.90
2019-01-12T06:35:16.503Z,5.90
2019-01-12T06:37:45.827Z,5.90
2019-01-12T06:40:17.373Z,5.90
2019-01-12T06:42:46.529Z,5.90
2019-01-12T06:45:16.073Z,5.90
2019-01-12T06:47:45.318Z,5.90
2019-01-12T06:50:15.601Z,5.90
2019-01-12T06:52:44.763Z,5.90
2019-01-12T06:55:14.201Z,5.90
2019-01-12T06:57:43.431Z,5.90
2019-01-12T07:00:15.331Z,5.90
2019-01-12T07:02:44.576Z,5.90
2019-01-12T07:05:16.077Z,5.90
2019-01-12T07:07:45.363Z,5.90
2019-01-12T07:10:15.283Z,5.90
2019-01-12T07:12:44.418Z,6.00
2019-01-12T07:15:14.018Z,6.00
2019-01-12T07:17:43.282Z,6.00
2019-01-12T07:20:17.334Z,5.90
2019-01-12T07:22:48.307Z,5.90
2019-01-12T07:25:18.632Z,5.90
2019-01-12T07:27:47.987Z,5.90
2019-01-12T07:30:22.260Z,5.90
2019-01-12T07:32:51.478Z,5.90
2019-01-12T07:35:20.760Z,5.90
2019-01-12T07:37:49.986Z,6.00
2019-01-12T07:40:21.216Z,6.00
2019-01-12T07:42:50.522Z,6.00
2019-01-12T07:45:26.505Z,6.00
2019-01-12T07:47:55.855Z,6.00
2019-01-12T07:50:24.981Z,6.00
2019-01-12T07:52:54.147Z,6.00
2019-01-12T07:55:23.315Z,6.00
2019-01-12T07:57:52.573Z,6.00
2019-01-12T08:00:22.792Z,5.90
2019-01-12T08:02:52.056Z,6.00
2019-01-12T08:05:22.109Z,6.00
2019-01-12T08:07:54.378Z,6.00
2019-01-12T08:10:25.167Z,6.00
2019-01-12T08:12:54.580Z,6.00
2019-01-12T08:15:24.784Z,6.10
2019-01-12T08:17:54.135Z,6.00
2019-01-12T08:20:23.340Z,6.00
2019-01-12T08:22:53.617Z,6.00
2019-01-12T08:25:23.492Z,6.00
2019-01-12T08:27:52.774Z,6.00
2019-01-12T08:30:22.068Z,6.00
2019-01-12T08:32:51.376Z,6.00
2019-01-12T08:35:20.521Z,6.00
2019-01-12T08:37:49.686Z,6.00
2019-01-12T08:40:18.858Z,6.00
2019-01-12T08:42:48.012Z,6.10
2019-01-12T08:45:17.808Z,6.00
2019-01-12T08:47:46.984Z,6.00
2019-01-12T08:50:20.017Z,6.00
2019-01-12T08:52:49.390Z,6.00
2019-01-12T08:55:18.704Z,6.00
2019-01-12T08:57:48.482Z,6.00
2019-01-12T09:00:20.166Z,6.10
2019-01-12T09:02:49.346Z,6.10
2019-01-12T09:05:24.876Z,6.10
2019-01-12T09:07:55.772Z,6.10
2019-01-12T09:10:25.113Z,6.10
2019-01-12T09:12:54.316Z,6.10
2019-01-12T09:15:24.493Z,6.10
2019-01-12T09:17:53.704Z,6.20
2019-01-12T09:20:28.334Z,6.20
2019-01-12T09:22:59.008Z,6.20
2019-01-12T09:25:28.313Z,6.30
2019-01-12T09:27:57.611Z,6.20
2019-01-12T09:30:26.902Z,6.20
2019-01-12T09:32:56.541Z,6.20
2019-01-12T09:35:25.710Z,6.30
2019-01-12T09:37:55.066Z,6.30
2019-01-12T09:40:24.396Z,6.80
2019-01-12T09:42:53.643Z,7.00
2019-01-12T09:45:25.528Z,6.90
2019-01-12T09:47:54.782Z,6.80
2019-01-12T09:50:24.033Z,6.70
2019-01-12T09:52:53.255Z,6.60
2019-01-12T09:55:23.302Z,6.60
2019-01-12T09:57:52.515Z,6.60
2019-01-12T10:00:25.112Z,6.60
2019-01-12T10:02:56.327Z,6.50
2019-01-12T10:05:27.674Z,6.60
2019-01-12T10:07:56.928Z,6.50
2019-01-12T10:10:26.934Z,6.50
2019-01-12T10:12:56.130Z,6.60
2019-01-12T10:15:25.515Z,6.60
2019-01-12T10:17:54.826Z,6.60
2019-01-12T10:20:24.098Z,6.60
2019-01-12T10:22:53.270Z,7.60
2019-01-12T10:25:34.796Z,8.30
2019-01-12T10:28:07.005Z,8.70
2019-01-12T10:30:36.206Z,9.00
2019-01-12T10:33:09.390Z,8.90
2019-01-12T10:35:39.457Z,8.40
2019-01-12T10:38:09.094Z,7.90
2019-01-12T10:40:38.459Z,7.60
2019-01-12T10:43:07.715Z,7.40
2019-01-12T10:45:37.240Z,7.20
2019-01-12T10:48:07.011Z,7.00
2019-01-12T10:50:37.809Z,6.90
2019-01-12T10:53:07.401Z,6.90
2019-01-12T10:55:38.806Z,6.80
2019-01-12T10:58:10.072Z,6.80
2019-01-12T11:00:40.394Z,6.80
2019-01-12T11:03:10.035Z,6.80
2019-01-12T11:05:39.311Z,6.70
2019-01-12T11:08:11.150Z,6.70
2019-01-12T11:10:40.311Z,6.70
2019-01-12T11:13:09.558Z,6.70
2019-01-12T11:15:39.114Z,6.70
2019-01-12T11:18:08.512Z,6.70
2019-01-12T11:20:37.785Z,6.70
2019-01-12T11:23:07.959Z,6.80
2019-01-12T11:25:47.479Z,6.90
2019-01-12T11:28:18.275Z,6.90
2019-01-12T11:30:47.477Z,6.90
2019-01-12T11:33:16.741Z,6.80
2019-01-12T11:35:46.146Z,6.80
2019-01-12T11:38:15.559Z,6.80
2019-01-12T11:40:45.663Z,6.80
2019-01-12T11:43:15.015Z,6.80
2019-01-12T11:45:44.322Z,6.80
2019-01-12T11:48:13.510Z,6.80
2019-01-12T11:50:42.997Z,6.80
2019-01-12T11:53:15.685Z,6.80
2019-01-12T11:55:44.962Z,6.80
2019-01-12T11:58:17.244Z,6.90
2019-01-12T12:00:46.684Z,6.90
2019-01-12T12:03:18.156Z,6.90
2019-01-12T12:05:47.027Z,6.90
2019-01-12T12:08:16.203Z,6.90
2019-01-12T12:10:45.792Z,6.90
2019-01-12T12:13:15.171Z,6.90
2019-01-12T12:15:44.423Z,6.80
2019-01-12T12:18:14.357Z,6.80
2019-01-12T12:20:43.718Z,6.80
2019-01-12T12:23:12.971Z,6.80
2019-01-12T12:25:43.555Z,6.70
2019-01-12T12:28:13.138Z,6.70
2019-01-12T12:30:42.642Z,6.80
2019-01-12T12:33:12.301Z,6.80
2019-01-12T12:35:41.663Z,6.80
2019-01-12T12:38:10.999Z,6.80
2019-01-12T12:40:45.274Z,6.70
2019-01-12T12:43:14.551Z,6.70
2019-01-12T12:45:44.150Z,6.70
2019-01-12T12:48:14.111Z,6.60
2019-01-12T12:50:43.433Z,6.70
2019-01-12T12:53:12.805Z,6.70
2019-01-12T12:55:42.331Z,6.60
2019-01-12T12:58:11.546Z,6.60
2019-01-12T13:00:45.328Z,6.60
2019-01-12T13:03:15.712Z,6.50
2019-01-12T13:05:45.463Z,6.50
2019-01-12T13:08:14.906Z,6.50
2019-01-12T13:10:44.437Z,6.50
2019-01-12T13:13:15.009Z,6.40
2019-01-12T13:15:45.222Z,6.40
2019-01-12T13:18:15.090Z,6.30
2019-01-12T13:20:44.614Z,6.40
2019-01-12T13:23:15.598Z,6.40
2019-01-12T13:25:46.364Z,6.40
2019-01-12T13:28:19.650Z,6.40
2019-01-12T13:30:49.080Z,6.40
2019-01-12T13:33:18.797Z,6.40
2019-01-12T13:35:52.972Z,6.40
2019-01-12T13:38:23.382Z,6.40
2019-01-12T13:40:53.050Z,6.40
2019-01-12T13:43:22.431Z,6.40
2019-01-12T13:45:54.012Z,6.60
2019-01-12T13:48:23.154Z,6.50
2019-01-12T13:50:56.215Z,6.50
2019-01-12T13:53:26.394Z,6.50
2019-01-12T13:55:56.099Z,6.50
2019-01-12T13:58:25.756Z,6.50
2019-01-12T14:00:56.171Z,6.50
2019-01-12T14:03:25.548Z,6.50
2019-01-12T14:06:14.116Z,6.50
2019-01-12T14:08:43.643Z,6.50
2019-01-12T14:11:12.906Z,6.50
2019-01-12T14:13:42.457Z,6.50
2019-01-12T14:16:12.607Z,6.50
2019-01-12T14:18:42.173Z,6.50
2019-01-12T14:21:13.255Z,6.50
2019-01-12T14:23:42.411Z,6.50
2019-01-12T14:26:12.204Z,6.50
2019-01-12T14:28:41.550Z,6.50
2019-01-12T14:31:11.172Z,6.50
2019-01-12T14:33:40.615Z,6.50
2019-01-12T14:36:09.934Z,6.60
2019-01-12T14:38:41.055Z,6.60
2019-01-12T14:41:13.200Z,6.60
2019-01-12T14:43:42.930Z,6.60
2019-01-12T14:46:12.202Z,6.70
2019-01-12T14:48:44.004Z,6.70
2019-01-12T14:51:13.924Z,6.70
2019-01-12T14:53:46.324Z,6.80
2019-01-12T14:56:20.406Z,6.70
2019-01-12T14:58:49.739Z,6.70
2019-01-12T15:01:19.658Z,6.80
2019-01-12T15:03:49.186Z,6.80
2019-01-12T15:06:19.362Z,6.80
2019-01-12T15:08:49.921Z,6.90
2019-01-12T15:11:22.661Z,7.00
2019-01-12T15:13:52.272Z,7.00
2019-01-12T15:16:23.813Z,7.10
2019-01-12T15:18:53.226Z,7.10
2019-01-12T15:21:23.840Z,7.00
2019-01-12T15:26:43.523Z,7.00
2019-01-12T15:29:13.452Z,6.90
2019-01-12T15:31:45.461Z,6.90
2019-01-12T15:34:16.852Z,6.90
2019-01-12T15:36:46.301Z,6.90
2019-01-12T15:39:15.662Z,7.00
2019-01-12T15:41:46.527Z,7.00
2019-01-12T15:44:16.081Z,7.00
2019-01-12T15:46:45.385Z,6.90
2019-01-12T15:49:15.473Z,6.90
2019-01-12T15:51:44.627Z,6.90
2019-01-12T15:54:14.241Z,6.90
2019-01-12T15:56:43.400Z,6.90
2019-01-12T15:59:12.686Z,6.90
2019-01-12T16:01:41.853Z,6.90
2019-01-12T16:04:11.166Z,6.90
2019-01-12T16:06:40.460Z,6.90
2019-01-12T16:09:10.078Z,6.90
2019-01-12T16:11:39.399Z,6.90
2019-01-12T16:14:08.676Z,6.90
2019-01-12T16:16:37.884Z,7.00
2019-01-12T16:19:07.235Z,6.90
2019-01-12T16:21:36.450Z,6.90
2019-01-12T16:24:05.661Z,7.20
2019-01-12T16:26:35.303Z,7.30
2019-01-12T16:29:04.905Z,7.30
2019-01-12T16:31:34.068Z,7.20
2019-01-12T16:34:03.415Z,7.20
2019-01-12T16:36:33.250Z,7.20
2019-01-12T16:39:05.480Z,7.10
2019-01-12T16:41:34.878Z,7.10
2019-01-12T16:44:04.231Z,7.10
2019-01-12T16:46:33.573Z,7.10
2019-01-12T16:49:03.249Z,7.10
2019-01-12T16:51:33.093Z,7.10
2019-01-12T16:54:02.249Z,7.10
2019-01-12T16:56:32.981Z,7.10
2019-01-12T16:59:02.115Z,7.10
2019-01-12T17:01:31.333Z,7.10
2019-01-12T17:04:01.499Z,7.10
2019-01-12T17:06:32.807Z,7.10
2019-01-12T17:09:05.358Z,7.10
2019-01-12T17:11:34.554Z,7.10
2019-01-12T17:14:04.085Z,7.10
2019-01-12T17:16:33.342Z,7.20
2019-01-12T17:19:02.663Z,7.20
2019-01-12T17:21:32.372Z,7.20
2019-01-12T17:24:01.672Z,7.20
2019-01-12T17:26:31.538Z,7.20
2019-01-12T17:29:00.922Z,7.20
2019-01-12T17:31:30.664Z,7.20
2019-01-12T17:33:59.882Z,7.30
2019-01-12T17:36:29.152Z,7.30
2019-01-12T17:38:58.394Z,7.30
2019-01-12T17:41:27.886Z,7.20
2019-01-12T17:43:57.111Z,7.30
2019-01-12T17:46:26.298Z,7.20
2019-01-12T17:48:55.849Z,7.30
2019-01-12T17:51:26.148Z,7.20
2019-01-12T17:53:55.605Z,7.30
2019-01-12T17:56:25.655Z,7.20
2019-01-12T17:58:54.828Z,7.20
2019-01-12T18:01:25.510Z,7.20
2019-01-12T18:03:55.406Z,7.20
2019-01-12T18:06:24.697Z,7.20
2019-01-12T18:08:54.120Z,7.30
2019-01-12T18:11:23.372Z,7.30
2019-01-12T18:13:53.754Z,7.30
2019-01-12T18:16:24.536Z,7.20
2019-01-12T18:18:55.234Z,7.30
2019-01-12T18:21:24.392Z,7.30
2019-01-12T18:23:53.559Z,7.30
2019-01-12T18:26:22.822Z,7.30
2019-01-12T18:28:52.359Z,7.30
2019-01-12T18:31:21.562Z,7.30
2019-01-12T18:33:50.906Z,7.30
2019-01-12T18:36:20.588Z,7.30
2019-01-12T18:38:51.598Z,7.30
2019-01-12T18:41:20.804Z,7.30
2019-01-12T18:43:50.034Z,7.30
2019-01-12T18:46:19.180Z,7.30
2019-01-12T18:48:48.425Z,7.30
2019-01-12T18:51:19.241Z,7.50
2019-01-12T18:53:48.720Z,7.40
2019-01-12T18:56:17.968Z,7.30
2019-01-12T18:58:49.320Z,7.20
2019-01-12T19:01:18.683Z,7.20
2019-01-12T19:03:48.058Z,7.10
2019-01-12T19:06:17.441Z,7.40
2019-01-12T19:08:47.711Z,7.40
2019-01-12T19:11:16.925Z,7.30
2019-01-12T19:13:47.105Z,7.40
2019-01-12T19:16:18.127Z,7.30
2019-01-12T19:18:50.773Z,7.20
2019-01-12T19:21:22.155Z,7.20
2019-01-12T19:23:52.877Z,7.10
2019-01-12T19:26:26.314Z,7.10
2019-01-12T19:28:58.451Z,7.00
2019-01-12T19:31:31.052Z,7.00
2019-01-12T19:34:00.315Z,7.00
2019-01-12T19:36:29.711Z,7.00
2019-01-12T19:39:15.533Z,6.90
2019-01-12T19:41:47.629Z,6.90
2019-01-12T19:44:19.236Z,6.90
2019-01-12T19:46:51.811Z,7.50
2019-01-12T19:49:22.641Z,7.70
2019-01-12T19:51:54.859Z,7.30
2019-01-12T19:54:29.719Z,7.20
2019-01-12T19:56:59.066Z,7.10
2019-01-12T19:59:28.314Z,7.00
2019-01-12T20:01:58.248Z,7.00
2019-01-12T20:04:27.617Z,6.90
2019-01-12T20:06:57.174Z,6.80
2019-01-12T20:09:26.949Z,6.80
2019-01-12T20:12:01.168Z,6.80
2019-01-12T20:14:30.699Z,6.80
2019-01-12T20:17:02.420Z,6.80
2019-01-12T20:19:31.714Z,6.90
2019-01-12T20:22:01.557Z,6.80
2019-01-12T20:24:30.952Z,6.90
2019-01-12T20:27:00.309Z,6.90
2019-01-12T20:29:29.962Z,6.90
2019-01-12T20:32:46.401Z,6.90
2019-01-12T20:35:46.095Z,6.90
2019-01-12T20:38:33.711Z,6.90
2019-01-12T20:41:19.822Z,6.80
2019-01-12T20:44:25.804Z,6.90
2019-01-12T20:47:23.017Z,6.90
2019-01-12T20:50:20.256Z,6.90
2019-01-12T20:53:25.448Z,6.90
2019-01-12T20:56:26.127Z,6.90
2019-01-12T20:59:38.786Z,6.90
2019-01-12T21:02:51.453Z,6.90
2019-01-12T21:05:36.852Z,6.90
2019-01-12T21:08:42.944Z,6.90
2019-01-12T21:11:28.727Z,6.90
2019-01-12T21:14:30.476Z,7.00
2019-01-12T21:17:07.286Z,7.00
2019-01-12T21:19:37.005Z,7.00
2019-01-12T21:22:08.242Z,6.90
2019-01-12T21:24:37.637Z,6.90
2019-01-12T21:27:07.098Z,6.90
2019-01-12T21:29:37.947Z,6.90
2019-01-12T21:32:07.639Z,6.90
2019-01-12T21:34:36.765Z,7.00
2019-01-12T21:37:06.635Z,6.90
2019-01-12T21:39:36.982Z,6.90
2019-01-12T21:42:06.353Z,7.00
2019-01-12T21:44:35.987Z,7.00
2019-01-12T21:47:05.769Z,7.00
2019-01-12T21:49:35.208Z,6.90
2019-01-12T21:52:04.669Z,6.90
2019-01-12T21:54:34.348Z,7.00
2019-01-12T21:57:07.772Z,7.20
2019-01-12T21:59:42.529Z,7.20
2019-01-12T22:02:08.258Z,7.10
2019-01-12T22:04:37.569Z,7.10
2019-01-12T22:07:06.883Z,7.10
2019-01-12T22:09:36.234Z,7.00
2019-01-12T22:12:06.245Z,7.00
2019-01-12T22:14:35.961Z,7.00
2019-01-12T22:17:06.125Z,7.00
2019-01-12T22:19:35.843Z,7.00
2019-01-12T22:22:05.735Z,7.00
2019-01-12T22:24:35.275Z,7.00
2019-01-12T22:27:06.931Z,7.00
2019-01-12T22:29:37.145Z,7.00
2019-01-12T22:32:06.479Z,7.00
2019-01-12T22:34:36.299Z,7.00
2019-01-12T22:37:05.544Z,7.00
2019-01-12T22:39:34.830Z,7.00
2019-01-12T22:42:08.373Z,7.00
2019-01-12T22:44:37.855Z,7.00
2019-01-12T22:47:07.463Z,6.90
2019-01-12T22:49:36.792Z,7.00
2019-01-12T22:52:06.129Z,7.00
2019-01-12T22:54:36.253Z,7.00
2019-01-12T22:57:05.584Z,7.00
2019-01-12T22:59:35.458Z,7.00
2019-01-12T23:02:07.722Z,7.10
2019-01-12T23:04:37.339Z,7.10
2019-01-12T23:07:11.481Z,7.10
2019-01-12T23:09:39.530Z,7.10
2019-01-12T23:12:10.114Z,7.10
2019-01-12T23:14:39.723Z,7.10
2019-01-12T23:17:09.606Z,7.10
2019-01-12T23:19:40.531Z,7.10
2019-01-12T23:22:10.148Z,7.10
2019-01-12T23:24:42.295Z,7.10
2019-01-12T23:27:12.525Z,7.10
2019-01-12T23:29:42.262Z,7.20
2019-01-12T23:32:12.261Z,7.10
2019-01-12T23:34:41.849Z,7.10
2019-01-12T23:37:11.599Z,7.20
2019-01-12T23:42:22.997Z,7.60
2019-01-12T23:44:53.777Z,7.50
2019-01-12T23:47:25.458Z,7.40
2019-01-12T23:49:54.661Z,7.30
2019-01-12T23:55:00.176Z,7.30
2019-01-12T23:57:29.521Z,7.30
2019-01-12T23:59:58.782Z,7.30
